Time;durP1;ratioP1;P1;durP2;ratioP2;P2;SDS_P1;SDS_P2;PMS_P1;PMS_P2;Temp;Humidity;BMP_temperature;BMP_pressure;BME280_temperature;BME280_humidity;BME280_pressure;Samples;Min_cycle;Max_cycle;Signal;HPM_P1;HPM_P2
2022/09/23 00:01:35;;;;;;;;;;;;;;;8.40;100.00;99430.98;104618;1273;60853;-70
2022/09/23 00:04:01;;;;;;;;;;;;;;;8.39;100.00;99430.84;104645;1274;60458;-70
2022/09/23 00:06:28;;;;;;;;;;;;;;;8.39;100.00;99432.27;104643;1273;74296;-70
2022/09/23 00:08:55;;;;;;;;;;;;;;;8.39;100.00;99432.80;104626;1273;69838;-70
2022/09/23 00:11:22;;;;;;;;;;;;;;;8.41;100.00;99431.33;104590;1275;74529;-70
2022/09/23 00:13:51;;;;;;;;;;;;;;;8.41;100.00;99429.55;104720;1273;60471;-70
2022/09/23 00:16:19;;;;;;;;;;;;;;;8.40;100.00;99426.92;104669;1273;60823;-70
2022/09/23 00:18:48;;;;;;;;;;;;;;;8.39;100.00;99426.77;104704;1273;75629;-71
2022/09/23 00:21:15;;;;;;;;;;;;;;;8.39;100.00;99422.69;104881;1273;70453;-70
2022/09/23 00:23:42;;;;;;;;;;;;;;;8.38;100.00;99417.95;104926;1273;73376;-69
2022/09/23 00:26:14;;;;;;;;;;;;;;;8.37;100.00;99413.22;104848;1273;60485;-70
2022/09/23 00:28:41;;;;;;;;;;;;;;;8.35;100.00;99410.83;104648;1273;61910;-70
2022/09/23 00:31:09;;;;;;;;;;;;;;;8.33;100.00;99410.41;104660;1273;74421;-72
2022/09/23 00:33:36;;;;;;;;;;;;;;;8.31;100.00;99409.11;104891;1273;69444;-70
2022/09/23 00:36:04;;;;;;;;;;;;;;;8.29;100.00;99413.62;104817;1274;74392;-71
2022/09/23 00:38:31;;;;;;;;;;;;;;;8.30;100.00;99412.55;104882;1273;60560;-70
2022/09/23 00:40:57;;;;;;;;;;;;;;;8.30;100.00;99411.96;104915;1273;61766;-70
2022/09/23 00:43:40;;;;;;;;;;;;;;;8.30;100.00;99409.47;104890;1273;60478;-70
2022/09/23 00:46:09;;;;;;;;;;;;;;;8.31;100.00;99407.48;104990;1273;68677;-71
2022/09/23 00:48:37;;;;;;;;;;;;;;;8.32;100.00;99409.58;104896;1273;73145;-70
2022/09/23 00:51:06;;;;;;;;;;;;;;;8.33;100.00;99407.23;104938;1273;60619;-71
2022/09/23 00:53:33;;;;;;;;;;;;;;;8.33;100.00;99408.61;104906;1273;61717;-70
2022/09/23 00:56:01;;;;;;;;;;;;;;;8.34;100.00;99408.90;104881;1273;75581;-70
2022/09/23 00:58:30;;;;;;;;;;;;;;;8.35;100.00;99408.34;104893;1273;70352;-70
2022/09/23 01:01:01;;;;;;;;;;;;;;;8.36;100.00;99405.83;104791;1276;73403;-70
2022/09/23 01:03:28;;;;;;;;;;;;;;;8.37;100.00;99403.15;104395;1276;60513;-70
2022/09/23 01:05:56;;;;;;;;;;;;;;;8.38;100.00;99402.05;104670;1273;61834;-70
2022/09/23 01:08:23;;;;;;;;;;;;;;;8.38;100.00;99397.09;104702;1273;73863;-70
2022/09/23 01:11:14;;;;;;;;;;;;;;;8.38;100.00;99403.29;104672;1273;70495;-70
2022/09/23 01:13:54;;;;;;;;;;;;;;;8.37;100.00;99402.60;104648;1273;73520;-70
2022/09/23 01:16:27;;;;;;;;;;;;;;;8.37;100.00;99400.30;104652;1273;60471;-70
2022/09/23 01:19:09;;;;;;;;;;;;;;;8.37;100.00;99401.02;104732;1273;60639;-70
2022/09/23 01:21:36;;;;;;;;;;;;;;;8.37;100.00;99400.64;104744;1273;73461;-70
2022/09/23 01:24:21;;;;;;;;;;;;;;;8.36;100.00;99397.14;104611;1273;60399;-70
2022/09/23 01:27:06;;;;;;;;;;;;;;;8.36;100.00;99396.25;104617;1273;73244;-70
2022/09/23 01:29:47;;;;;;;;;;;;;;;8.35;100.00;99390.99;104629;1273;60496;-70
2022/09/23 01:32:13;;;;;;;;;;;;;;;8.35;100.00;99390.83;104966;1273;60607;-70
2022/09/23 01:34:40;;;;;;;;;;;;;;;8.34;100.00;99389.79;104879;1273;60955;-71
2022/09/23 01:37:33;;;;;;;;;;;;;;;8.34;100.00;99385.23;104882;1273;70466;-70
2022/09/23 01:40:10;;;;;;;;;;;;;;;8.31;100.00;99383.25;104856;1273;74514;-71
2022/09/23 01:42:39;;;;;;;;;;;;;;;8.30;100.00;99385.96;104881;1273;60534;-71
2022/09/23 01:45:15;;;;;;;;;;;;;;;8.29;100.00;99383.38;104889;1273;60816;-71
2022/09/23 01:47:45;;;;;;;;;;;;;;;8.27;100.00;99383.64;104897;1273;74520;-71
2022/09/23 01:53:09;;;;;;;;;;;;;;;8.24;100.00;99379.55;104653;1273;73510;-70
2022/09/23 01:55:38;;;;;;;;;;;;;;;8.23;100.00;99381.04;104666;1273;60444;-70
2022/09/23 01:58:41;;;;;;;;;;;;;;;8.22;100.00;99378.92;104771;1273;61991;-70
2022/09/23 02:01:08;;;;;;;;;;;;;;;8.22;100.00;99376.09;104206;1278;74611;-70
2022/09/23 02:03:50;;;;;;;;;;;;;;;8.23;100.00;99374.44;104226;1278;70638;-70
2022/09/23 02:06:23;;;;;;;;;;;;;;;8.24;100.00;99378.50;104323;1278;73427;-70
2022/09/23 02:08:55;;;;;;;;;;;;;;;8.24;100.00;99379.73;104204;1277;60642;-70
2022/09/23 02:11:22;;;;;;;;;;;;;;;8.24;100.00;99378.84;104237;1279;60706;-70
2022/09/23 02:13:53;;;;;;;;;;;;;;;8.23;100.00;99378.68;104356;1278;73432;-70
2022/09/23 02:16:22;;;;;;;;;;;;;;;8.24;100.00;99376.02;104255;1278;69729;-70
2022/09/23 02:18:52;;;;;;;;;;;;;;;8.24;100.00;99382.55;104247;1277;73465;-70
2022/09/23 02:21:20;;;;;;;;;;;;;;;8.24;100.00;99383.96;104293;1278;60579;-70
2022/09/23 02:23:50;;;;;;;;;;;;;;;8.25;100.00;99387.48;104278;1279;60487;-70
2022/09/23 02:26:18;;;;;;;;;;;;;;;8.26;100.00;99385.98;104262;1277;75496;-70
2022/09/23 02:28:44;;;;;;;;;;;;;;;8.29;100.00;99393.11;104341;1278;69586;-70
2022/09/23 02:31:18;;;;;;;;;;;;;;;8.30;100.00;99397.16;104284;1278;60692;-70
2022/09/23 02:33:50;;;;;;;;;;;;;;;8.30;100.00;99394.11;104514;1278;60771;-71
2022/09/23 02:36:31;;;;;;;;;;;;;;;8.30;100.00;99391.64;104815;1275;61818;-70
2022/09/23 02:39:03;;;;;;;;;;;;;;;8.30;100.00;99389.17;104950;1273;74607;-68
2022/09/23 02:41:53;;;;;;;;;;;;;;;8.28;100.00;99389.09;104922;1273;69458;-70
2022/09/23 02:44:21;;;;;;;;;;;;;;;8.25;100.00;99389.61;104614;1278;74085;-70
2022/09/23 02:46:51;;;;;;;;;;;;;;;8.22;100.00;99392.91;104508;1277;60477;-71
2022/09/23 02:49:22;;;;;;;;;;;;;;;8.19;100.00;99392.00;104681;1278;60771;-71
2022/09/23 02:51:49;;;;;;;;;;;;;;;8.17;100.00;99387.38;104586;1278;75651;-71
2022/09/23 02:54:18;;;;;;;;;;;;;;;8.15;100.00;99387.95;104597;1278;69261;-70
2022/09/23 02:56:48;;;;;;;;;;;;;;;8.12;100.00;99384.73;104596;1279;73926;-70
2022/09/23 02:59:18;;;;;;;;;;;;;;;8.09;100.00;99382.44;104589;1279;60494;-70
2022/09/23 03:01:51;;;;;;;;;;;;;;;8.06;100.00;99385.05;104639;1278;60434;-70
2022/09/23 03:04:37;;;;;;;;;;;;;;;8.03;100.00;99386.98;104374;1278;74469;-70
2022/09/23 03:07:13;;;;;;;;;;;;;;;8.01;100.00;99380.91;104317;1277;69980;-70
2022/09/23 03:09:50;;;;;;;;;;;;;;;7.97;100.00;99378.06;104256;1278;72923;-70
2022/09/23 03:12:34;;;;;;;;;;;;;;;7.95;100.00;99376.63;104272;1279;60482;-70
2022/09/23 03:15:07;;;;;;;;;;;;;;;7.92;100.00;99375.00;104238;1278;61750;-70
2022/09/23 03:17:39;;;;;;;;;;;;;;;7.88;100.00;99373.95;104255;1277;74612;-70
2022/09/23 03:20:06;;;;;;;;;;;;;;;7.84;100.00;99371.45;104331;1279;69135;-70
2022/09/23 03:22:36;;;;;;;;;;;;;;;7.80;100.00;99368.30;104772;1273;73532;-70
2022/09/23 03:25:06;;;;;;;;;;;;;;;7.77;100.00;99370.06;104896;1273;60584;-70
2022/09/23 03:27:34;;;;;;;;;;;;;;;7.72;100.00;99366.96;104745;1273;60477;-69
2022/09/23 03:30:01;;;;;;;;;;;;;;;7.67;100.00;99370.16;104708;1273;75794;-71
2022/09/23 03:32:28;;;;;;;;;;;;;;;7.64;100.00;99373.88;104940;1273;70919;-69
2022/09/23 03:34:57;;;;;;;;;;;;;;;7.62;100.00;99382.10;104792;1273;72652;-70
2022/09/23 03:37:28;;;;;;;;;;;;;;;7.60;100.00;99379.91;104716;1273;60478;-72
2022/09/23 03:40:14;;;;;;;;;;;;;;;7.57;100.00;99384.48;104911;1273;61233;-70
2022/09/23 03:42:41;;;;;;;;;;;;;;;7.53;100.00;99392.28;104824;1273;73750;-69
2022/09/23 03:45:12;;;;;;;;;;;;;;;7.50;100.00;99386.92;104774;1273;69329;-70
2022/09/23 03:47:38;;;;;;;;;;;;;;;7.47;100.00;99382.14;104760;1273;74457;-69
2022/09/23 03:50:05;;;;;;;;;;;;;;;7.43;100.00;99381.95;104747;1273;60461;-70
2022/09/23 03:52:32;;;;;;;;;;;;;;;7.40;100.00;99378.06;104788;1273;60910;-70
2022/09/23 03:54:58;;;;;;;;;;;;;;;7.35;100.00;99377.05;104825;1273;74780;-70
2022/09/23 03:57:25;;;;;;;;;;;;;;;7.29;100.00;99373.98;104868;1273;60460;-70
2022/09/23 03:59:52;;;;;;;;;;;;;;;7.23;100.00;99375.29;104986;1273;61125;-73
2022/09/23 04:02:19;;;;;;;;;;;;;;;7.21;100.00;99378.05;104896;1276;60590;-70
2022/09/23 04:04:45;;;;;;;;;;;;;;;7.20;100.00;99378.29;104954;1273;61557;-70
2022/09/23 04:07:12;;;;;;;;;;;;;;;7.18;100.00;99377.48;104824;1273;75616;-71
2022/09/23 04:09:39;;;;;;;;;;;;;;;7.15;100.00;99374.25;104868;1273;69427;-70
2022/09/23 04:12:06;;;;;;;;;;;;;;;7.13;100.00;99374.36;104894;1273;60384;-72
2022/09/23 04:14:32;;;;;;;;;;;;;;;7.11;100.00;99377.64;104960;1273;60481;-69
2022/09/23 04:16:58;;;;;;;;;;;;;;;7.09;100.00;99377.73;104720;1273;60384;-69
2022/09/23 04:19:25;;;;;;;;;;;;;;;7.09;100.00;99377.73;104651;1273;60348;-70
2022/09/23 04:21:52;;;;;;;;;;;;;;;7.11;100.00;99377.65;104659;1273;70364;-70
2022/09/23 04:24:19;;;;;;;;;;;;;;;7.13;100.00;99377.91;104678;1273;73950;-71
2022/09/23 04:26:48;;;;;;;;;;;;;;;7.15;100.00;99377.45;104721;1273;60505;-71
2022/09/23 04:29:15;;;;;;;;;;;;;;;7.17;100.00;99383.91;104917;1273;62062;-70
2022/09/23 04:31:41;;;;;;;;;;;;;;;7.19;100.00;99383.11;104857;1273;60430;-70
2022/09/23 04:34:08;;;;;;;;;;;;;;;7.20;100.00;99388.51;104731;1273;60414;-70
2022/09/23 04:36:34;;;;;;;;;;;;;;;7.22;100.00;99386.30;104732;1273;73922;-70
2022/09/23 04:39:01;;;;;;;;;;;;;;;7.24;100.00;99384.80;104715;1273;60481;-70
2022/09/23 04:41:28;;;;;;;;;;;;;;;7.26;100.00;99385.41;104763;1273;60643;-72
2022/09/23 04:43:56;;;;;;;;;;;;;;;7.27;100.00;99385.19;104773;1273;75167;-71
2022/09/23 04:46:23;;;;;;;;;;;;;;;7.29;100.00;99384.41;104989;1272;69372;-71
2022/09/23 04:48:49;;;;;;;;;;;;;;;7.30;100.00;99384.89;104952;1273;74275;-71
2022/09/23 04:51:17;;;;;;;;;;;;;;;7.30;100.00;99382.24;104942;1273;60457;-71
2022/09/23 04:53:45;;;;;;;;;;;;;;;7.29;100.00;99380.51;104971;1273;61377;-71
2022/09/23 04:56:13;;;;;;;;;;;;;;;7.28;100.00;99381.29;104969;1273;74794;-70
2022/09/23 04:58:41;;;;;;;;;;;;;;;7.25;100.00;99379.08;104942;1275;70756;-69
2022/09/23 05:01:11;;;;;;;;;;;;;;;7.25;100.00;99377.49;104952;1275;73927;-71
2022/09/23 05:03:38;;;;;;;;;;;;;;;7.25;100.00;99381.20;105006;1273;60624;-71
2022/09/23 05:06:05;;;;;;;;;;;;;;;7.25;100.00;99381.58;105007;1273;60477;-70
2022/09/23 05:08:31;;;;;;;;;;;;;;;7.25;100.00;99384.92;104888;1274;75476;-69
2022/09/23 05:10:59;;;;;;;;;;;;;;;7.25;100.00;99383.67;104682;1273;60496;-70
2022/09/23 05:13:26;;;;;;;;;;;;;;;7.27;100.00;99385.55;105042;1274;73449;-71
2022/09/23 05:15:56;;;;;;;;;;;;;;;7.29;100.00;99387.41;104886;1274;60544;-70
2022/09/23 05:18:23;;;;;;;;;;;;;;;7.29;100.00;99390.59;104939;1275;60597;-70
2022/09/23 05:20:54;;;;;;;;;;;;;;;7.29;100.00;99393.40;105032;1274;75969;-71
2022/09/23 05:23:23;;;;;;;;;;;;;;;7.34;100.00;99389.28;104883;1274;69285;-71
2022/09/23 05:25:55;;;;;;;;;;;;;;;7.53;100.00;99391.89;104934;1274;74552;-71
2022/09/23 05:28:22;;;;;;;;;;;;;;;7.72;100.00;99392.38;104916;1274;60477;-71
2022/09/23 05:30:48;;;;;;;;;;;;;;;7.82;100.00;99387.67;104926;1274;60504;-71
2022/09/23 05:33:14;;;;;;;;;;;;;;;7.94;100.00;99386.56;104914;1274;60499;-70
2022/09/23 05:35:45;;;;;;;;;;;;;;;8.05;100.00;99384.73;104909;1274;60502;-71
2022/09/23 05:38:11;;;;;;;;;;;;;;;8.17;100.00;99386.98;105016;1275;72628;-70
2022/09/23 05:40:38;;;;;;;;;;;;;;;8.32;100.00;99393.48;104829;1273;60523;-70
2022/09/23 05:43:04;;;;;;;;;;;;;;;8.44;100.00;99389.02;104906;1274;60388;-69
2022/09/23 05:45:31;;;;;;;;;;;;;;;8.51;100.00;99388.48;104655;1274;60493;-70
2022/09/23 05:47:58;;;;;;;;;;;;;;;8.59;100.00;99389.98;104588;1274;69446;-70
2022/09/23 05:50:24;;;;;;;;;;;;;;;8.68;100.00;99391.48;104557;1275;60492;-70
2022/09/23 05:52:51;;;;;;;;;;;;;;;8.78;100.00;99395.37;104954;1274;60478;-71
2022/09/23 05:55:17;;;;;;;;;;;;;;;8.86;100.00;99399.73;104971;1274;60540;-72
2022/09/23 05:57:44;;;;;;;;;;;;;;;8.92;100.00;99402.98;104947;1274;75608;-71
2022/09/23 06:00:10;;;;;;;;;;;;;;;8.95;100.00;99403.29;104767;1275;60463;-72
2022/09/23 06:02:37;;;;;;;;;;;;;;;9.00;100.00;99397.73;104861;1276;71297;-71
2022/09/23 06:05:04;;;;;;;;;;;;;;;9.01;100.00;99398.73;104719;1275;60575;-71
2022/09/23 06:07:31;;;;;;;;;;;;;;;9.10;100.00;99399.83;104954;1274;60372;-69
2022/09/23 06:09:57;;;;;;;;;;;;;;;9.20;100.00;99394.85;104735;1276;74591;-71
2022/09/23 06:12:24;;;;;;;;;;;;;;;9.27;100.00;99398.36;104932;1273;60478;-70
2022/09/23 06:14:51;;;;;;;;;;;;;;;9.31;100.00;99394.80;104912;1275;60864;-70
2022/09/23 06:17:18;;;;;;;;;;;;;;;9.38;100.00;99398.48;104930;1274;60970;-70
2022/09/23 06:19:44;;;;;;;;;;;;;;;9.41;100.00;99395.11;104943;1274;60433;-71
2022/09/23 06:22:11;;;;;;;;;;;;;;;9.46;100.00;99397.16;104933;1274;60502;-70
2022/09/23 06:24:37;;;;;;;;;;;;;;;9.56;100.00;99404.20;104960;1274;70293;-71
2022/09/23 06:27:05;;;;;;;;;;;;;;;9.70;100.00;99406.84;104870;1274;72317;-71
2022/09/23 06:29:32;;;;;;;;;;;;;;;9.80;100.00;99400.89;104949;1273;60483;-70
2022/09/23 06:31:59;;;;;;;;;;;;;;;9.84;100.00;99402.98;104641;1275;60699;-70
2022/09/23 06:34:25;;;;;;;;;;;;;;;9.84;100.00;99404.21;104514;1274;252754;-70
2022/09/23 06:36:54;;;;;;;;;;;;;;;9.88;100.00;99405.39;105063;1274;68736;-71
2022/09/23 06:39:20;;;;;;;;;;;;;;;9.92;100.00;99405.36;104960;1273;73470;-71
2022/09/23 06:41:47;;;;;;;;;;;;;;;9.95;100.00;99404.48;104934;1274;60478;-70
2022/09/23 06:44:14;;;;;;;;;;;;;;;9.97;100.00;99411.27;104931;1274;61067;-70
2022/09/23 06:46:41;;;;;;;;;;;;;;;10.04;100.00;99415.67;104803;1275;72848;-71
2022/09/23 06:49:08;;;;;;;;;;;;;;;10.18;100.00;99416.62;104938;1275;68544;-71
2022/09/23 06:51:34;;;;;;;;;;;;;;;10.28;100.00;99412.16;104894;1274;60468;-71
2022/09/23 06:54:01;;;;;;;;;;;;;;;10.41;100.00;99416.35;104904;1274;60605;-71
2022/09/23 06:56:28;;;;;;;;;;;;;;;10.48;100.00;99419.32;104974;1275;60756;-70
2022/09/23 06:58:54;;;;;;;;;;;;;;;10.61;100.00;99415.19;104952;1274;76176;-70
2022/09/23 07:01:22;;;;;;;;;;;;;;;10.75;100.00;99418.06;104941;1274;60479;-70
2022/09/23 07:03:48;;;;;;;;;;;;;;;10.92;100.00;99415.10;104865;1277;73183;-70
2022/09/23 07:06:16;;;;;;;;;;;;;;;11.07;100.00;99414.84;104609;1275;61284;-70
2022/09/23 07:08:43;;;;;;;;;;;;;;;11.18;100.00;99417.73;104686;1273;60774;-70
2022/09/23 07:11:11;;;;;;;;;;;;;;;11.36;100.00;99418.35;104787;1274;74707;-69
2022/09/23 07:13:40;;;;;;;;;;;;;;;11.52;100.00;99422.50;104611;1274;69256;-71
2022/09/23 07:16:07;;;;;;;;;;;;;;;11.63;100.00;99420.92;104898;1273;74422;-71
2022/09/23 07:18:35;;;;;;;;;;;;;;;11.71;100.00;99416.50;104733;1277;60835;-71
2022/09/23 07:21:07;;;;;;;;;;;;;;;11.68;100.00;99421.50;104949;1274;61825;-68
2022/09/23 07:23:33;;;;;;;;;;;;;;;11.61;100.00;99422.27;105016;1274;73364;-70
2022/09/23 07:26:00;;;;;;;;;;;;;;;11.65;100.00;99429.17;104842;1274;67630;-71
2022/09/23 07:28:27;;;;;;;;;;;;;;;11.80;100.00;99424.09;104908;1274;74387;-71
2022/09/23 07:30:55;;;;;;;;;;;;;;;12.07;100.00;99418.04;104946;1274;61282;-71
2022/09/23 07:33:21;;;;;;;;;;;;;;;12.26;100.00;99418.05;104934;1274;62077;-70
2022/09/23 07:35:48;;;;;;;;;;;;;;;12.38;100.00;99421.02;104631;1274;60584;-70
2022/09/23 07:38:14;;;;;;;;;;;;;;;12.48;100.00;99424.43;104610;1274;60592;-70
2022/09/23 07:40:41;;;;;;;;;;;;;;;12.51;100.00;99426.13;104942;1274;60668;-70
2022/09/23 07:43:08;;;;;;;;;;;;;;;12.63;100.00;99423.95;104945;1274;61269;-70
2022/09/23 07:45:37;;;;;;;;;;;;;;;12.72;100.00;99419.75;105014;1273;61037;-70
2022/09/23 07:48:04;;;;;;;;;;;;;;;12.82;100.00;99424.27;105007;1274;75053;-71
2022/09/23 07:50:31;;;;;;;;;;;;;;;13.06;100.00;99421.67;104982;1274;69638;-71
2022/09/23 07:52:57;;;;;;;;;;;;;;;13.23;100.00;99419.60;104913;1274;73511;-71
2022/09/23 07:55:24;;;;;;;;;;;;;;;13.32;100.00;99419.13;104918;1274;60563;-71
2022/09/23 07:57:50;;;;;;;;;;;;;;;13.49;100.00;99420.95;104572;1274;60572;-70
2022/09/23 08:00:17;;;;;;;;;;;;;;;13.71;100.00;99419.17;104596;1274;75687;-70
2022/09/23 08:02:45;;;;;;;;;;;;;;;13.97;100.00;99425.65;104636;1274;69217;-70
2022/09/23 08:05:11;;;;;;;;;;;;;;;14.07;100.00;99420.97;104621;1274;60413;-70
2022/09/23 08:07:38;;;;;;;;;;;;;;;14.01;100.00;99421.10;104630;1274;60451;-70
2022/09/23 08:10:05;;;;;;;;;;;;;;;13.74;100.00;99422.00;104614;1274;60914;-70
2022/09/23 08:12:32;;;;;;;;;;;;;;;13.55;100.00;99422.85;104699;1274;75188;-71
2022/09/23 08:14:59;;;;;;;;;;;;;;;13.28;100.00;99423.50;104602;1273;60461;-70
2022/09/23 08:17:26;;;;;;;;;;;;;;;13.13;100.00;99421.84;104777;1274;73556;-71
2022/09/23 08:19:52;;;;;;;;;;;;;;;13.02;100.00;99419.84;104641;1274;61192;-71
2022/09/23 08:22:19;;;;;;;;;;;;;;;12.94;100.00;99418.89;104870;1274;60952;-71
2022/09/23 08:24:46;;;;;;;;;;;;;;;12.99;100.00;99416.98;105008;1274;74331;-71
2022/09/23 08:27:13;;;;;;;;;;;;;;;13.13;100.00;99417.63;104912;1273;60460;-69
2022/09/23 08:29:39;;;;;;;;;;;;;;;13.39;100.00;99417.21;104782;1274;74727;-72
2022/09/23 08:32:06;;;;;;;;;;;;;;;13.81;100.00;99410.04;104901;1274;61143;-71
2022/09/23 08:34:34;;;;;;;;;;;;;;;14.25;100.00;99409.50;104962;1274;60580;-71
2022/09/23 08:37:01;;;;;;;;;;;;;;;14.53;100.00;99408.05;105011;1273;75162;-71
2022/09/23 08:39:27;;;;;;;;;;;;;;;14.69;100.00;99408.80;104936;1274;69128;-71
2022/09/23 08:42:15;;;;;;;;;;;;;;;14.75;100.00;99406.98;104945;1273;60565;-70
2022/09/23 08:44:53;;;;;;;;;;;;;;;14.70;100.00;99406.73;104637;1274;60530;-71
2022/09/23 08:47:19;;;;;;;;;;;;;;;14.63;100.00;99404.09;104637;1274;60690;-69
2022/09/23 08:49:52;;;;;;;;;;;;;;;14.50;100.00;99404.71;104635;1274;60511;-69
2022/09/23 08:52:35;;;;;;;;;;;;;;;14.31;100.00;99400.60;104627;1273;69375;-70
2022/09/23 08:55:02;;;;;;;;;;;;;;;14.02;100.00;99402.45;104635;1274;73479;-71
2022/09/23 08:57:37;;;;;;;;;;;;;;;13.89;100.00;99405.38;104641;1273;60511;-71
2022/09/23 09:00:04;;;;;;;;;;;;;;;13.85;100.00;99404.77;104817;1273;60816;-72
2022/09/23 09:02:33;;;;;;;;;;;;;;;13.98;100.00;99403.48;104887;1273;74521;-71
2022/09/23 09:05:02;;;;;;;;;;;;;;;14.30;100.00;99397.84;104802;1274;69559;-72
2022/09/23 09:07:33;;;;;;;;;;;;;;;14.57;100.00;99399.70;104886;1274;73496;-71
2022/09/23 09:10:04;;;;;;;;;;;;;;;14.75;100.00;99398.48;105141;1274;60497;-69
2022/09/23 09:12:42;;;;;;;;;;;;;;;14.80;100.00;99398.79;104751;1273;61085;-69
2022/09/23 09:15:11;;;;;;;;;;;;;;;14.66;100.00;99404.73;104562;1274;75655;-70
2022/09/23 09:17:47;;;;;;;;;;;;;;;14.41;100.00;99401.09;104671;1274;69992;-70
2022/09/23 09:20:16;;;;;;;;;;;;;;;14.21;100.00;99401.54;104629;1274;73478;-70
2022/09/23 09:22:51;;;;;;;;;;;;;;;14.10;100.00;99398.63;104742;1274;60617;-70
2022/09/23 09:25:27;;;;;;;;;;;;;;;14.18;100.00;99394.63;104993;1274;60514;-70
2022/09/23 09:27:54;;;;;;;;;;;;;;;14.36;100.00;99392.02;104887;1274;75327;-71
2022/09/23 09:30:23;;;;;;;;;;;;;;;14.50;100.00;99393.05;105073;1274;68910;-71
2022/09/23 09:33:04;;;;;;;;;;;;;;;14.74;100.00;99388.39;104975;1273;74717;-71
2022/09/23 09:35:32;;;;;;;;;;;;;;;15.03;100.00;99386.80;105005;1273;60483;-70
2022/09/23 09:37:59;;;;;;;;;;;;;;;15.32;100.00;99383.31;104795;1274;60921;-71
2022/09/23 09:40:25;;;;;;;;;;;;;;;15.54;100.00;99384.19;104964;1274;72782;-70
2022/09/23 09:42:52;;;;;;;;;;;;;;;15.91;100.00;99378.08;104939;1274;69516;-70
2022/09/23 09:45:22;;;;;;;;;;;;;;;16.26;100.00;99373.55;104920;1274;60558;-70
2022/09/23 09:47:55;;;;;;;;;;;;;;;16.56;100.00;99367.84;104933;1274;61309;-70
2022/09/23 09:50:40;;;;;;;;;;;;;;;16.60;100.00;99367.68;104914;1275;61288;-70
2022/09/23 09:53:23;;;;;;;;;;;;;;;16.43;100.00;99365.86;104934;1273;75558;-70
2022/09/23 09:55:59;;;;;;;;;;;;;;;16.17;100.00;99362.35;104739;1274;66361;-71
2022/09/23 09:58:28;;;;;;;;;;;;;;;15.91;100.00;99366.15;104835;1274;73353;-70
2022/09/23 10:00:55;;;;;;;;;;;;;;;15.71;100.00;99364.69;104765;1274;61297;-71
2022/09/23 10:03:24;;;;;;;;;;;;;;;15.53;100.00;99361.13;104912;1273;60911;-70
2022/09/23 10:05:53;;;;;;;;;;;;;;;15.40;100.00;99362.94;104940;1273;75649;-71
2022/09/23 10:08:25;;;;;;;;;;;;;;;15.28;100.00;99356.59;104997;1274;68239;-71
2022/09/23 10:10:59;;;;;;;;;;;;;;;15.21;100.00;99356.59;104892;1273;74931;-72
2022/09/23 10:13:29;;;;;;;;;;;;;;;15.23;100.00;99355.92;104943;1273;60489;-70
2022/09/23 10:15:57;;;;;;;;;;;;;;;15.38;100.00;99353.03;104800;1273;61329;-70
2022/09/23 10:18:23;;;;;;;;;;;;;;;15.81;100.00;99344.88;104785;1273;73830;-70
2022/09/23 10:20:50;;;;;;;;;;;;;;;16.16;100.00;99343.98;104510;1277;60486;-70
2022/09/23 10:23:22;;;;;;;;;;;;;;;16.27;100.00;99342.48;104676;1273;74064;-69
2022/09/23 10:26:02;;;;;;;;;;;;;;;16.37;100.00;99339.48;104660;1273;61654;-70
2022/09/23 10:28:49;;;;;;;;;;;;;;;16.65;100.00;99335.65;104898;1273;60862;-70
2022/09/23 10:31:27;;;;;;;;;;;;;;;16.96;100.00;99330.67;104690;1274;75533;-70
2022/09/23 10:33:56;;;;;;;;;;;;;;;16.84;100.00;99333.83;104540;1275;70267;-70
2022/09/23 10:36:22;;;;;;;;;;;;;;;16.71;100.00;99337.09;104690;1273;74295;-70
2022/09/23 10:38:51;;;;;;;;;;;;;;;16.55;100.00;99333.45;104644;1274;60367;-70
2022/09/23 10:47:18;;;;;;;;;;;;;;;15.61;100.00;99333.30;104754;1273;69354;-71
2022/09/23 10:49:57;;;;;;;;;;;;;;;15.47;100.00;99335.15;104930;1273;73365;-71
2022/09/23 10:52:31;;;;;;;;;;;;;;;15.33;100.00;99334.33;104933;1272;60555;-71
2022/09/23 10:55:07;;;;;;;;;;;;;;;15.18;100.00;99335.86;104960;1272;61881;-71
2022/09/23 10:57:52;;;;;;;;;;;;;;;15.08;100.00;99333.29;104927;1273;74121;-71
2022/09/23 11:00:25;;;;;;;;;;;;;;;15.01;100.00;99329.90;104967;1273;70599;-70
2022/09/23 11:02:55;;;;;;;;;;;;;;;14.97;100.00;99327.56;104938;1273;73729;-70
2022/09/23 11:05:21;;;;;;;;;;;;;;;14.97;100.00;99327.73;105106;1273;60617;-71
2022/09/23 11:07:54;;;;;;;;;;;;;;;14.98;100.00;99326.61;104938;1273;60463;-71
2022/09/23 11:10:38;;;;;;;;;;;;;;;15.01;100.00;99325.29;104937;1273;74185;-71
2022/09/23 11:13:25;;;;;;;;;;;;;;;15.06;100.00;99323.95;104918;1273;69517;-71
2022/09/23 11:16:10;;;;;;;;;;;;;;;15.12;100.00;99326.34;104396;1277;74579;-72
2022/09/23 11:18:55;;;;;;;;;;;;;;;15.18;100.00;99323.33;104238;1277;60950;-70
2022/09/23 11:21:28;;;;;;;;;;;;;;;15.21;100.00;99321.29;104306;1277;61126;-69
2022/09/23 11:23:54;;;;;;;;;;;;;;;15.19;100.00;99320.03;104430;1277;74622;-71
2022/09/23 11:26:30;;;;;;;;;;;;;;;15.19;100.00;99312.04;104385;1277;60572;-69
2022/09/23 11:29:10;;;;;;;;;;;;;;;15.10;100.00;99310.17;104689;1277;73604;-72
2022/09/23 11:31:59;;;;;;;;;;;;;;;15.03;100.00;99311.81;104486;1278;60826;-72
2022/09/23 11:34:44;;;;;;;;;;;;;;;15.01;100.00;99308.26;104432;1277;60987;-71
2022/09/23 11:37:14;;;;;;;;;;;;;;;14.96;100.00;99303.29;104587;1277;74783;-72
2022/09/23 11:40:01;;;;;;;;;;;;;;;14.88;100.00;99303.77;104735;1277;70138;-71
2022/09/23 11:42:30;;;;;;;;;;;;;;;14.78;100.00;99303.10;103958;1284;73265;-70
2022/09/23 11:45:06;;;;;;;;;;;;;;;14.77;100.00;99299.98;103942;1283;60567;-71
2022/09/23 11:47:40;;;;;;;;;;;;;;;14.88;100.00;99294.81;104126;1283;61558;-71
2022/09/23 11:50:25;;;;;;;;;;;;;;;15.03;100.00;99294.30;104029;1283;74593;-72
2022/09/23 11:52:57;;;;;;;;;;;;;;;15.12;100.00;99292.17;103926;1280;70280;-71
2022/09/23 11:55:30;;;;;;;;;;;;;;;15.08;100.00;99292.80;104277;1279;73158;-70
2022/09/23 11:58:23;;;;;;;;;;;;;;;15.09;100.00;99295.61;104078;1280;60498;-70
2022/09/23 12:00:57;;;;;;;;;;;;;;;15.24;100.00;99292.97;103708;1284;61266;-73
2022/09/23 12:03:29;;;;;;;;;;;;;;;15.35;100.00;99283.27;103946;1284;75186;-72
2022/09/23 12:05:59;;;;;;;;;;;;;;;15.32;100.00;99280.14;103922;1284;69284;-72
2022/09/23 12:08:28;;;;;;;;;;;;;;;15.34;100.00;99271.55;103903;1284;74463;-70
2022/09/23 12:11:07;;;;;;;;;;;;;;;15.48;100.00;99267.90;104067;1284;61259;-69
2022/09/23 12:13:52;;;;;;;;;;;;;;;15.61;100.00;99266.61;104036;1284;61582;-71
2022/09/23 12:16:19;;;;;;;;;;;;;;;15.77;100.00;99263.39;104032;1284;76029;-72
2022/09/23 12:18:46;;;;;;;;;;;;;;;15.81;100.00;99263.04;103930;1284;61234;-74
2022/09/23 12:21:22;;;;;;;;;;;;;;;15.87;100.00;99258.98;104345;1281;74564;-72
2022/09/23 12:24:01;;;;;;;;;;;;;;;15.89;100.00;99257.40;104129;1281;61643;-70
2022/09/23 12:26:30;;;;;;;;;;;;;;;15.88;100.00;99255.62;104205;1281;61170;-71
2022/09/23 12:29:00;;;;;;;;;;;;;;;15.86;100.00;99254.39;104238;1281;76323;-73
2022/09/23 12:31:30;;;;;;;;;;;;;;;15.82;100.00;99254.39;104371;1281;69380;-72
2022/09/23 12:34:02;;;;;;;;;;;;;;;15.78;100.00;99253.02;104059;1281;74789;-72
2022/09/23 12:36:34;;;;;;;;;;;;;;;15.75;100.00;99246.54;104406;1281;61757;-69
2022/09/23 12:39:05;;;;;;;;;;;;;;;15.70;100.00;99242.80;104239;1275;61722;-69
2022/09/23 12:41:41;;;;;;;;;;;;;;;15.63;100.00;99241.23;104725;1274;76452;-69
2022/09/23 12:44:11;;;;;;;;;;;;;;;15.60;100.00;99239.33;104656;1274;68753;-71
2022/09/23 12:46:45;;;;;;;;;;;;;;;15.56;100.00;99240.54;104735;1274;73269;-71
2022/09/23 12:49:34;;;;;;;;;;;;;;;15.52;100.00;99233.37;104652;1274;61367;-71
2022/09/23 12:52:10;;;;;;;;;;;;;;;15.40;100.00;99236.01;104641;1274;61339;-71
2022/09/23 12:54:37;;;;;;;;;;;;;;;15.28;100.00;99231.83;104692;1274;75300;-72
2022/09/23 12:57:08;;;;;;;;;;;;;;;15.18;100.00;99229.75;104986;1274;69347;-70
2022/09/23 12:59:50;;;;;;;;;;;;;;;15.09;100.00;99224.35;104918;1273;72489;-69